createdAt,value
2023-03-31T00:00:58.072Z,73.30
2023-03-31T00:03:25.355Z,73.40
2023-03-31T00:05:58.387Z,73.40
2023-03-31T00:08:35.744Z,73.40
2023-03-31T00:11:07.121Z,73.40
2023-03-31T00:13:34.120Z,73.60
2023-03-31T00:16:07.408Z,73.50
2023-03-31T00:18:35.220Z,73.60
2023-03-31T00:21:29.746Z,74.00
2023-03-31T00:23:59.261Z,74.10
2023-03-31T00:26:26.438Z,74.90
2023-03-31T00:28:53.796Z,74.90
2023-03-31T00:31:22.268Z,74.90
2023-03-31T00:33:49.610Z,74.80
2023-03-31T00:36:21.492Z,74.80
2023-03-31T00:38:48.968Z,74.80
2023-03-31T00:41:16.202Z,74.60
2023-03-31T00:44:10.659Z,74.70
2023-03-31T00:47:13.901Z,74.80
2023-03-31T00:49:51.838Z,75.00
2023-03-31T00:52:23.908Z,75.10
2023-03-31T00:54:55.626Z,75.60
2023-03-31T00:57:25.254Z,75.70
2023-03-31T00:59:57.284Z,75.80
2023-03-31T01:02:27.816Z,75.70
2023-03-31T01:05:02.133Z,75.70
2023-03-31T01:07:44.185Z,75.70
2023-03-31T01:10:11.921Z,75.80
2023-03-31T01:12:42.643Z,75.70
2023-03-31T01:15:10.350Z,75.80
2023-03-31T01:17:38.023Z,75.70
2023-03-31T01:20:33.151Z,75.70
2023-03-31T01:23:21.512Z,75.90
2023-03-31T01:26:20.747Z,76.40
2023-03-31T01:29:01.367Z,75.70
2023-03-31T01:31:40.398Z,75.40
2023-03-31T01:34:26.683Z,75.20
2023-03-31T01:37:14.798Z,75.10
2023-03-31T01:40:22.570Z,75.00
2023-03-31T01:43:07.137Z,75.00
2023-03-31T01:45:41.221Z,74.90
2023-03-31T01:48:18.271Z,74.70
2023-03-31T01:51:16.189Z,74.60
2023-03-31T01:53:46.301Z,74.60
2023-03-31T01:56:13.124Z,74.70
2023-03-31T01:58:43.922Z,74.60
2023-03-31T02:01:19.771Z,74.80
2023-03-31T02:03:53.777Z,74.70
2023-03-31T02:06:26.836Z,74.50
2023-03-31T02:09:06.090Z,74.40
2023-03-31T02:11:34.806Z,74.50
2023-03-31T02:14:04.076Z,74.50
2023-03-31T02:16:33.533Z,74.40
2023-03-31T02:19:03.778Z,74.30
2023-03-31T02:21:33.478Z,74.30
2023-03-31T02:24:07.836Z,74.20
2023-03-31T02:26:41.602Z,74.30
2023-03-31T02:29:08.781Z,74.30
2023-03-31T02:31:52.714Z,74.10
2023-03-31T02:34:19.849Z,74.10
2023-03-31T02:36:48.830Z,74.80
2023-03-31T02:39:25.520Z,74.00
2023-03-31T02:41:52.447Z,74.00
2023-03-31T02:44:20.808Z,73.90
2023-03-31T02:46:48.507Z,73.80
2023-03-31T02:49:18.364Z,73.80
2023-03-31T02:51:54.084Z,73.70
2023-03-31T02:54:38.083Z,73.70
2023-03-31T02:57:33.069Z,73.80
2023-03-31T03:00:41.114Z,73.80
2023-03-31T03:03:45.967Z,73.70
2023-03-31T03:06:18.847Z,73.60
2023-03-31T03:08:55.651Z,73.50
2023-03-31T03:11:43.947Z,73.50
2023-03-31T03:14:36.303Z,73.50
2023-03-31T03:17:15.216Z,73.40
2023-03-31T03:19:42.661Z,73.40
2023-03-31T03:22:10.221Z,73.40
2023-03-31T03:24:37.087Z,73.40
2023-03-31T03:27:04.227Z,73.40
2023-03-31T03:29:31.118Z,73.50
2023-03-31T03:31:58.080Z,73.50
2023-03-31T03:34:25.703Z,73.60
2023-03-31T03:36:52.566Z,73.70
2023-03-31T03:39:19.423Z,73.60
2023-03-31T03:41:46.883Z,73.60
2023-03-31T03:44:13.877Z,73.60
2023-03-31T03:46:40.904Z,73.60
2023-03-31T03:49:07.774Z,73.60
2023-03-31T03:51:34.736Z,73.60
2023-03-31T03:54:01.736Z,73.70
2023-03-31T03:56:28.686Z,73.70
2023-03-31T03:58:55.551Z,73.80
2023-03-31T04:01:22.681Z,73.90
2023-03-31T04:03:49.912Z,75.60
2023-03-31T04:06:16.783Z,76.60
2023-03-31T04:08:43.814Z,76.70
2023-03-31T04:11:18.926Z,76.70
2023-03-31T04:13:47.030Z,76.20
2023-03-31T04:16:14.240Z,75.90
2023-03-31T04:18:43.870Z,75.60
2023-03-31T04:21:15.264Z,75.30
2023-03-31T04:23:48.474Z,75.10
2023-03-31T04:26:18.050Z,74.70
2023-03-31T04:28:50.625Z,74.70
2023-03-31T04:31:25.390Z,74.60
2023-03-31T04:33:56.555Z,74.60
2023-03-31T04:36:23.386Z,74.60
2023-03-31T04:38:54.709Z,74.50
2023-03-31T04:41:22.950Z,74.60
2023-03-31T04:43:50.168Z,74.50
2023-03-31T04:46:17.552Z,74.40
2023-03-31T04:48:44.501Z,74.50
2023-03-31T04:51:11.805Z,74.70
2023-03-31T04:53:38.690Z,74.70
2023-03-31T04:56:06.251Z,74.70
2023-03-31T04:58:33.717Z,74.80
2023-03-31T05:01:00.561Z,74.90
2023-03-31T05:03:27.652Z,74.90
2023-03-31T05:05:55.028Z,75.10
2023-03-31T05:08:21.884Z,75.30
2023-03-31T05:10:48.872Z,75.40
2023-03-31T05:13:15.817Z,75.30
2023-03-31T05:15:45.059Z,75.30
2023-03-31T05:18:12.057Z,75.30
2023-03-31T05:20:39.195Z,75.40
2023-03-31T05:23:06.978Z,75.70
2023-03-31T05:25:34.245Z,75.80
2023-03-31T05:28:01.641Z,76.00
2023-03-31T05:30:28.890Z,76.20
2023-03-31T05:32:56.312Z,76.20
2023-03-31T05:35:23.847Z,76.40
2023-03-31T05:37:51.136Z,76.40
2023-03-31T05:40:18.107Z,76.40
2023-03-31T05:42:45.039Z,76.40
2023-03-31T05:45:12.665Z,76.60
2023-03-31T05:47:39.917Z,76.60
2023-03-31T05:50:09.195Z,76.60
2023-03-31T05:52:36.600Z,76.50
2023-03-31T05:55:04.512Z,76.60
2023-03-31T05:57:31.952Z,76.70
2023-03-31T05:59:59.165Z,76.70
2023-03-31T06:02:26.231Z,76.80
2023-03-31T06:04:53.378Z,76.70
2023-03-31T06:07:22.240Z,76.70
2023-03-31T06:09:49.098Z,76.60
2023-03-31T06:12:16.700Z,76.70
2023-03-31T06:14:43.559Z,76.50
2023-03-31T06:17:10.539Z,76.60
2023-03-31T06:19:37.430Z,76.50
2023-03-31T06:22:04.395Z,76.30
2023-03-31T06:24:31.262Z,76.50
2023-03-31T06:26:58.789Z,76.40
2023-03-31T06:29:25.707Z,76.20
2023-03-31T06:31:52.730Z,76.10
2023-03-31T06:34:21.327Z,76.10
2023-03-31T06:36:48.510Z,76.10
2023-03-31T06:39:15.472Z,75.90
2023-03-31T06:41:42.309Z,75.90
2023-03-31T06:44:09.204Z,75.80
2023-03-31T06:46:36.318Z,75.60
2023-03-31T06:49:03.309Z,75.70
2023-03-31T06:51:32.438Z,75.60
2023-03-31T06:53:59.574Z,75.40
2023-03-31T06:56:27.373Z,75.70
2023-03-31T06:58:54.260Z,75.60
2023-03-31T07:01:21.214Z,75.40
2023-03-31T07:03:48.145Z,75.10
2023-03-31T07:06:16.503Z,75.10
2023-03-31T07:08:44.712Z,75.00
2023-03-31T07:11:11.747Z,74.90
2023-03-31T07:13:38.703Z,75.00
2023-03-31T07:16:07.456Z,74.70
2023-03-31T07:18:36.561Z,74.10
2023-03-31T07:21:07.203Z,74.50
2023-03-31T07:23:36.068Z,74.40
2023-03-31T07:26:02.966Z,74.20
2023-03-31T07:28:31.026Z,74.00
2023-03-31T07:30:57.974Z,73.80
2023-03-31T07:33:24.874Z,73.70
2023-03-31T07:36:00.258Z,73.70
2023-03-31T07:38:35.039Z,73.50
2023-03-31T07:41:08.960Z,73.10
2023-03-31T07:43:36.793Z,73.20
2023-03-31T07:46:05.474Z,72.90
2023-03-31T07:48:32.574Z,73.10
2023-03-31T07:50:59.613Z,73.30
2023-03-31T07:53:26.529Z,73.60
2023-03-31T07:55:53.332Z,73.70
2023-03-31T07:58:20.240Z,73.80
2023-03-31T08:00:47.096Z,73.80
2023-03-31T08:03:13.989Z,73.90
2023-03-31T08:05:41.085Z,73.90
2023-03-31T08:08:08.041Z,73.90
2023-03-31T08:10:34.926Z,74.20
2023-03-31T08:13:01.784Z,73.90
2023-03-31T08:15:28.947Z,74.00
2023-03-31T08:17:55.894Z,73.90
2023-03-31T08:20:22.838Z,73.90
2023-03-31T08:22:49.962Z,74.00
2023-03-31T08:25:17.085Z,73.90
2023-03-31T08:27:44.021Z,73.80
2023-03-31T08:30:12.157Z,73.90
2023-03-31T08:32:39.226Z,74.00
2023-03-31T08:35:06.863Z,73.70
2023-03-31T08:37:33.823Z,73.40
2023-03-31T08:40:00.762Z,73.40
2023-03-31T08:42:41.969Z,73.10
2023-03-31T08:45:17.319Z,73.20
2023-03-31T08:47:46.584Z,73.00
2023-03-31T08:50:17.219Z,73.10
2023-03-31T08:53:07.503Z,73.10
2023-03-31T08:55:49.064Z,72.90
2023-03-31T08:58:32.352Z,73.10
2023-03-31T09:01:52.778Z,73.40
2023-03-31T09:04:25.015Z,73.50
2023-03-31T09:07:06.257Z,73.50
2023-03-31T09:10:05.800Z,73.80
2023-03-31T09:12:57.418Z,73.70
2023-03-31T09:15:29.183Z,74.10
2023-03-31T09:18:03.024Z,74.00
2023-03-31T09:20:37.111Z,74.20
2023-03-31T09:23:12.986Z,74.00
2023-03-31T09:25:41.573Z,74.20
2023-03-31T09:28:21.357Z,74.30
2023-03-31T09:30:49.866Z,74.50
2023-03-31T09:33:32.908Z,74.70
2023-03-31T09:36:06.798Z,74.90
2023-03-31T09:38:33.991Z,74.50
2023-03-31T09:41:02.675Z,74.80
2023-03-31T09:43:31.783Z,74.50
2023-03-31T09:46:09.211Z,74.80
2023-03-31T09:48:38.965Z,74.50
2023-03-31T09:51:14.762Z,74.60
2023-03-31T09:53:53.565Z,74.70
2023-03-31T09:56:43.170Z,74.30
2023-03-31T09:59:18.968Z,74.20
2023-03-31T10:01:49.767Z,74.30
2023-03-31T10:04:21.833Z,74.20
2023-03-31T10:06:49.418Z,74.00
2023-03-31T10:09:17.135Z,74.20
2023-03-31T10:12:04.737Z,73.70
2023-03-31T10:14:51.469Z,73.70
2023-03-31T10:17:24.297Z,73.90
2023-03-31T10:19:54.092Z,73.60
2023-03-31T10:22:23.910Z,73.90
2023-03-31T10:24:52.485Z,74.00
2023-03-31T10:27:26.700Z,73.80
2023-03-31T10:29:56.463Z,74.30
2023-03-31T10:32:34.578Z,73.90
2023-03-31T10:35:09.227Z,73.40
2023-03-31T10:37:37.736Z,74.30
2023-03-31T10:40:15.592Z,73.20
2023-03-31T10:42:46.733Z,73.50
2023-03-31T10:45:35.577Z,72.90
2023-03-31T10:48:04.239Z,72.60
2023-03-31T10:50:35.195Z,72.60
2023-03-31T10:53:11.241Z,72.30
2023-03-31T10:55:48.524Z,71.40
2023-03-31T10:58:39.419Z,71.80
2023-03-31T11:01:12.065Z,72.00
2023-03-31T11:03:57.466Z,71.80
2023-03-31T11:06:39.520Z,72.10
2023-03-31T11:09:12.418Z,72.30
2023-03-31T11:12:09.999Z,72.30
2023-03-31T11:14:57.100Z,72.70
2023-03-31T11:18:01.285Z,73.10
2023-03-31T11:21:03.400Z,72.70
2023-03-31T11:23:59.323Z,73.00
2023-03-31T11:26:43.557Z,72.90
2023-03-31T11:29:25.508Z,73.20
2023-03-31T11:32:09.424Z,73.20
2023-03-31T11:34:40.120Z,73.50
2023-03-31T11:37:22.283Z,73.20
2023-03-31T11:39:55.343Z,72.30
2023-03-31T11:42:28.285Z,73.10
2023-03-31T11:45:02.986Z,73.80
2023-03-31T11:47:35.065Z,73.40
2023-03-31T11:50:10.768Z,72.90
2023-03-31T11:52:41.682Z,72.70
2023-03-31T11:55:15.385Z,71.80
2023-03-31T11:57:51.561Z,71.40
2023-03-31T12:00:32.581Z,71.30
2023-03-31T12:03:03.215Z,71.60
2023-03-31T12:05:33.736Z,71.10
2023-03-31T12:08:10.891Z,70.60
2023-03-31T12:10:41.730Z,70.90
2023-03-31T12:13:37.387Z,71.30
2023-03-31T12:16:17.211Z,71.80
2023-03-31T12:19:22.731Z,71.20
2023-03-31T12:21:54.390Z,72.10
2023-03-31T12:24:21.273Z,72.20
2023-03-31T12:26:50.872Z,72.30
2023-03-31T12:29:31.383Z,72.50
2023-03-31T12:32:01.371Z,72.90
2023-03-31T12:34:29.451Z,72.90
2023-03-31T12:37:28.905Z,72.50
2023-03-31T12:40:15.050Z,72.90
2023-03-31T12:43:00.721Z,72.50
2023-03-31T12:45:39.363Z,73.20
2023-03-31T12:48:06.879Z,73.00
2023-03-31T12:51:00.433Z,72.90
2023-03-31T12:53:44.837Z,72.50
2023-03-31T12:56:11.723Z,71.90
2023-03-31T12:58:44.259Z,72.00
2023-03-31T13:01:16.263Z,71.80
2023-03-31T13:03:52.043Z,71.60
2023-03-31T13:06:28.124Z,71.80
2023-03-31T13:09:11.379Z,71.80
2023-03-31T13:11:43.225Z,71.50
2023-03-31T13:14:16.747Z,71.10
2023-03-31T13:16:44.058Z,70.70
2023-03-31T13:19:23.451Z,71.10
2023-03-31T13:22:02.072Z,70.30
2023-03-31T13:24:31.292Z,70.00
2023-03-31T13:27:36.625Z,69.70
2023-03-31T13:30:06.176Z,69.20
2023-03-31T13:32:33.158Z,69.40
2023-03-31T13:35:14.302Z,69.40
2023-03-31T13:38:14.106Z,69.70
2023-03-31T13:41:00.582Z,70.00
2023-03-31T13:43:58.375Z,70.70
2023-03-31T13:46:43.448Z,70.70
2023-03-31T13:49:38.098Z,70.40
2023-03-31T13:52:09.976Z,70.80
2023-03-31T13:54:54.938Z,70.80
2023-03-31T13:57:58.709Z,71.10
2023-03-31T14:00:52.293Z,71.00
2023-03-31T14:03:38.046Z,70.40
2023-03-31T14:06:33.722Z,69.50
2023-03-31T14:09:17.384Z,71.00
2023-03-31T14:11:44.194Z,70.50
2023-03-31T14:14:16.276Z,70.30
2023-03-31T14:16:51.097Z,71.00
2023-03-31T14:19:32.792Z,71.20
2023-03-31T14:22:17.793Z,71.40
2023-03-31T14:24:51.740Z,71.50
2023-03-31T14:27:43.703Z,71.40
2023-03-31T14:30:27.240Z,71.20
2023-03-31T14:33:45.363Z,71.00
2023-03-31T14:36:12.273Z,70.60
2023-03-31T14:38:39.405Z,70.90
2023-03-31T14:41:06.343Z,70.80
2023-03-31T14:43:44.780Z,70.70
2023-03-31T14:46:11.765Z,70.70
2023-03-31T14:48:47.245Z,70.80
2023-03-31T14:51:23.748Z,70.40
2023-03-31T14:54:00.111Z,70.40
2023-03-31T14:56:40.954Z,70.30
2023-03-31T14:59:09.054Z,70.70
2023-03-31T15:01:38.295Z,69.50
2023-03-31T15:04:14.068Z,69.80
2023-03-31T15:06:42.408Z,69.90
2023-03-31T15:09:18.345Z,70.70
2023-03-31T15:11:47.448Z,69.90
2023-03-31T15:14:14.719Z,70.20
2023-03-31T15:16:45.582Z,70.50
2023-03-31T15:19:25.405Z,70.40
2023-03-31T15:22:01.679Z,70.70
2023-03-31T15:24:29.624Z,70.30
2023-03-31T15:27:05.326Z,70.60
2023-03-31T15:29:45.236Z,70.20
2023-03-31T15:32:23.023Z,70.30
2023-03-31T15:34:51.563Z,70.20
2023-03-31T15:37:32.633Z,70.10
2023-03-31T15:40:02.784Z,70.20
2023-03-31T15:42:30.331Z,70.10
2023-03-31T15:45:28.929Z,70.00
2023-03-31T15:47:57.362Z,70.30
2023-03-31T15:50:24.901Z,70.60
2023-03-31T15:52:54.665Z,70.80
2023-03-31T15:55:27.801Z,70.40
2023-03-31T15:57:56.267Z,70.40
2023-03-31T16:00:32.058Z,70.40
2023-03-31T16:03:01.022Z,70.40
2023-03-31T16:05:53.559Z,70.60
2023-03-31T16:08:28.699Z,70.50
2023-03-31T16:11:23.377Z,70.40
2023-03-31T16:13:53.478Z,70.20
2023-03-31T16:16:23.881Z,70.40
2023-03-31T16:19:03.964Z,70.20
2023-03-31T16:21:47.541Z,70.20
2023-03-31T16:24:15.663Z,70.40
2023-03-31T16:26:43.385Z,70.50
2023-03-31T16:29:19.148Z,70.50
2023-03-31T16:31:46.293Z,70.50
2023-03-31T16:34:13.258Z,70.90
2023-03-31T16:36:40.671Z,70.70
2023-03-31T16:39:07.924Z,71.10
2023-03-31T16:41:37.540Z,71.40
2023-03-31T16:44:04.589Z,71.80
2023-03-31T16:46:31.511Z,72.00
2023-03-31T16:48:58.889Z,72.00
2023-03-31T16:51:26.255Z,72.10
2023-03-31T16:53:53.182Z,72.10
2023-03-31T16:56:20.227Z,71.90
2023-03-31T16:58:47.116Z,72.00
2023-03-31T17:01:14.051Z,72.10
2023-03-31T17:03:42.248Z,72.40
2023-03-31T17:06:11.674Z,72.60
2023-03-31T17:08:39.827Z,72.60
2023-03-31T17:11:14.098Z,72.50
2023-03-31T17:13:42.956Z,72.50
2023-03-31T17:18:57.615Z,72.90
2023-03-31T17:21:24.651Z,72.80
2023-03-31T17:23:51.556Z,72.80
2023-03-31T17:26:18.598Z,73.10
2023-03-31T17:28:45.584Z,73.10
2023-03-31T17:31:13.027Z,73.20
2023-03-31T17:33:40.324Z,73.30
2023-03-31T17:36:07.575Z,73.50
2023-03-31T17:38:34.763Z,73.90
2023-03-31T17:41:09.753Z,74.00
2023-03-31T17:43:38.015Z,73.90
2023-03-31T17:46:13.579Z,73.90
2023-03-31T17:48:41.488Z,74.30
2023-03-31T17:51:13.662Z,74.30
2023-03-31T17:53:45.367Z,74.40
2023-03-31T17:56:13.206Z,75.00
2023-03-31T17:58:40.263Z,75.00
2023-03-31T18:01:08.863Z,74.90
2023-03-31T18:03:36.366Z,75.00
2023-03-31T18:06:11.831Z,75.00
2023-03-31T18:08:39.787Z,75.10
2023-03-31T18:11:08.446Z,75.00
2023-03-31T18:13:37.235Z,75.00
2023-03-31T18:16:09.688Z,75.10
2023-03-31T18:18:37.824Z,75.00
2023-03-31T18:21:06.514Z,74.80
2023-03-31T18:23:34.737Z,74.90
2023-03-31T18:26:02.123Z,75.70
2023-03-31T18:28:29.083Z,74.90
2023-03-31T18:30:56.472Z,75.80
2023-03-31T18:33:23.411Z,75.20
2023-03-31T18:35:50.456Z,75.20
2023-03-31T18:38:18.564Z,75.20
2023-03-31T18:40:50.072Z,76.00
2023-03-31T18:43:18.482Z,75.50
2023-03-31T18:45:49.608Z,75.40
2023-03-31T18:48:18.562Z,75.30
2023-03-31T18:50:46.167Z,75.20
2023-03-31T18:53:15.303Z,75.30
2023-03-31T18:55:42.467Z,75.30
2023-03-31T18:58:09.830Z,75.30
2023-03-31T19:00:37.067Z,75.30
2023-03-31T19:03:04.158Z,75.30
2023-03-31T19:05:31.264Z,75.40
2023-03-31T19:07:58.958Z,75.40
2023-03-31T19:10:26.081Z,75.40
2023-03-31T19:12:53.288Z,75.50
2023-03-31T19:15:21.559Z,75.30
2023-03-31T19:17:48.779Z,75.30
2023-03-31T19:20:18.484Z,75.10
2023-03-31T19:22:49.316Z,75.30
2023-03-31T19:25:18.280Z,75.40
2023-03-31T19:27:46.145Z,75.40
2023-03-31T19:30:18.849Z,75.50
2023-03-31T19:32:48.086Z,75.90
2023-03-31T19:35:19.872Z,75.80
2023-03-31T19:37:47.508Z,75.70
2023-03-31T19:40:14.588Z,75.60
2023-03-31T19:42:42.310Z,75.40
2023-03-31T19:45:09.512Z,75.30
2023-03-31T19:47:36.620Z,75.30
2023-03-31T19:50:04.071Z,75.50
2023-03-31T19:52:31.295Z,75.50
2023-03-31T19:54:58.194Z,75.50
2023-03-31T19:57:25.093Z,75.40
2023-03-31T19:59:52.290Z,75.40
2023-03-31T20:02:19.347Z,75.40
2023-03-31T20:04:46.506Z,75.50
2023-03-31T20:07:13.735Z,75.50
2023-03-31T20:09:40.827Z,75.50
2023-03-31T20:12:07.690Z,75.60
2023-03-31T20:14:34.486Z,75.60
2023-03-31T20:17:03.231Z,75.70
2023-03-31T20:19:30.190Z,75.70
2023-03-31T20:21:58.010Z,75.90
2023-03-31T20:24:25.170Z,75.90
2023-03-31T20:26:52.630Z,75.90
2023-03-31T20:29:19.735Z,75.90
2023-03-31T20:31:46.808Z,75.60
2023-03-31T20:34:16.671Z,75.50
2023-03-31T20:36:45.744Z,75.60
2023-03-31T20:39:14.213Z,75.80
2023-03-31T20:41:42.066Z,76.00
2023-03-31T20:44:13.475Z,76.50
2023-03-31T20:46:43.335Z,76.40
2023-03-31T20:49:10.369Z,76.30
2023-03-31T20:51:38.509Z,76.30
2023-03-31T20:54:07.019Z,76.40
2023-03-31T20:56:39.613Z,76.50
2023-03-31T20:59:09.915Z,76.70
2023-03-31T21:01:37.405Z,76.70
2023-03-31T21:04:06.729Z,76.90
2023-03-31T21:06:51.952Z,76.80
2023-03-31T21:09:18.944Z,77.00
2023-03-31T21:11:45.945Z,77.70
2023-03-31T21:14:16.884Z,77.40
2023-03-31T21:16:45.740Z,76.90
2023-03-31T21:19:12.999Z,76.80
2023-03-31T21:21:41.458Z,76.90
2023-03-31T21:24:11.186Z,77.10
2023-03-31T21:26:38.782Z,77.00
2023-03-31T21:29:05.772Z,77.60
2023-03-31T21:31:33.230Z,77.10
2023-03-31T21:34:02.446Z,76.80
2023-03-31T21:36:29.528Z,76.90
2023-03-31T21:38:57.212Z,76.90
2023-03-31T21:41:27.959Z,76.70
2023-03-31T21:43:55.852Z,76.70
2023-03-31T21:46:26.124Z,76.60
2023-03-31T21:48:53.741Z,76.70
2023-03-31T21:51:24.635Z,76.70
2023-03-31T21:53:55.190Z,76.50
2023-03-31T21:56:23.886Z,76.60
2023-03-31T21:58:53.716Z,76.60
2023-03-31T22:01:21.745Z,76.50
2023-03-31T22:03:48.997Z,76.80
2023-03-31T22:06:16.407Z,77.00
2023-03-31T22:08:43.299Z,77.00
2023-03-31T22:11:11.477Z,77.00
2023-03-31T22:13:38.762Z,77.10
2023-03-31T22:16:12.646Z,77.30
2023-03-31T22:18:39.480Z,77.30
2023-03-31T22:21:14.924Z,77.10
2023-03-31T22:23:41.902Z,77.00
2023-03-31T22:26:08.845Z,76.90
2023-03-31T22:28:35.798Z,76.90
2023-03-31T22:31:02.772Z,76.80
2023-03-31T22:33:29.640Z,76.80
2023-03-31T22:35:56.612Z,77.10
2023-03-31T22:38:23.489Z,77.20
2023-03-31T22:40:50.470Z,77.20
2023-03-31T22:43:17.912Z,76.90
2023-03-31T22:45:45.022Z,77.00
2023-03-31T22:48:12.074Z,77.10
2023-03-31T22:50:43.315Z,77.00
2023-03-31T22:53:10.954Z,77.30
2023-03-31T22:55:53.702Z,77.20
2023-03-31T22:58:21.534Z,77.40
2023-03-31T23:00:56.407Z,77.20
2023-03-31T23:03:23.291Z,77.50
2023-03-31T23:05:50.125Z,77.30
2023-03-31T23:08:17.143Z,77.60
2023-03-31T23:10:53.419Z,77.90
2023-03-31T23:13:20.368Z,78.10
2023-03-31T23:15:47.179Z,78.10
2023-03-31T23:18:14.250Z,78.10
2023-03-31T23:20:41.478Z,78.00
2023-03-31T23:23:08.356Z,78.30
2023-03-31T23:25:35.465Z,78.00
2023-03-31T23:28:02.612Z,77.90
2023-03-31T23:30:29.457Z,77.90
2023-03-31T23:32:56.471Z,77.70
2023-03-31T23:35:23.943Z,77.50
2023-03-31T23:37:50.852Z,77.50
2023-03-31T23:40:17.792Z,77.50
2023-03-31T23:42:44.605Z,77.80
2023-03-31T23:45:11.624Z,77.90
2023-03-31T23:47:40.719Z,78.00
2023-03-31T23:50:09.003Z,78.00
2023-03-31T23:52:36.196Z,78.00
2023-03-31T23:55:04.486Z,77.80
2023-03-31T23:57:31.511Z,77.90
2023-03-31T23:59:58.420Z,77.80
